createdAt,value
2017-03-30T00:00:23.108Z,12.83
2017-03-30T00:01:03.761Z,12.85
2017-03-30T00:01:45.438Z,12.78
2017-03-30T00:02:26.012Z,12.86
2017-03-30T00:03:06.669Z,12.82
2017-03-30T00:03:47.356Z,12.85
2017-03-30T00:04:27.949Z,12.85
2017-03-30T00:05:08.542Z,12.8
2017-03-30T00:05:49.199Z,12.86
2017-03-30T00:06:29.856Z,12.8
2017-03-30T00:07:10.455Z,12.87
2017-03-30T00:07:51.029Z,12.85
2017-03-30T00:08:31.682Z,12.82
2017-03-30T00:09:12.376Z,12.8
2017-03-30T00:09:52.966Z,12.8
2017-03-30T00:10:33.562Z,12.9
2017-03-30T00:11:14.194Z,12.91
2017-03-30T00:11:54.883Z,12.85
2017-03-30T00:12:35.478Z,12.75
2017-03-30T00:13:17.148Z,12.82
2017-03-30T00:13:57.808Z,12.83
2017-03-30T00:14:39.483Z,12.78
2017-03-30T00:15:20.133Z,12.85
2017-03-30T00:16:00.792Z,12.8
2017-03-30T00:16:41.446Z,12.9
2017-03-30T00:17:22.042Z,12.85
2017-03-30T00:18:02.669Z,12.9
2017-03-30T00:18:43.354Z,12.85
2017-03-30T00:19:23.950Z,12.85
2017-03-30T00:20:04.544Z,12.83
2017-03-30T00:20:45.220Z,12.78
2017-03-30T00:21:25.869Z,12.82
2017-03-30T00:22:06.461Z,12.79
2017-03-30T00:22:47.030Z,12.8
2017-03-30T00:23:27.683Z,12.79
2017-03-30T00:24:08.360Z,12.78
2017-03-30T00:24:48.991Z,12.75
2017-03-30T00:25:29.682Z,12.76
2017-03-30T00:26:10.319Z,12.7
2017-03-30T00:26:50.946Z,12.65
2017-03-30T00:27:31.625Z,12.68
2017-03-30T00:28:12.249Z,12.67
2017-03-30T00:28:52.919Z,12.7
2017-03-30T00:29:33.563Z,12.55
2017-03-30T00:30:14.325Z,12.58
2017-03-30T00:30:54.970Z,12.55
2017-03-30T00:31:35.617Z,12.57
2017-03-30T00:32:16.278Z,12.64
2017-03-30T00:32:56.923Z,12.55
2017-03-30T00:33:37.582Z,12.47
2017-03-30T00:34:18.230Z,12.5
2017-03-30T00:34:58.884Z,12.5
2017-03-30T00:35:39.544Z,12.5
2017-03-30T00:36:20.206Z,12.54
2017-03-30T00:37:00.851Z,12.46
2017-03-30T00:37:41.497Z,12.46
2017-03-30T00:38:22.192Z,12.5
2017-03-30T00:39:02.783Z,12.47
2017-03-30T00:39:43.351Z,12.37
2017-03-30T00:40:23.929Z,12.45
2017-03-30T00:41:04.594Z,12.42
2017-03-30T00:41:45.198Z,12.5
2017-03-30T00:42:25.779Z,12.36
2017-03-30T00:43:06.415Z,12.49
2017-03-30T00:43:47.066Z,12.47
2017-03-30T00:44:27.723Z,12.45
2017-03-30T00:45:08.368Z,12.46
2017-03-30T00:45:49.047Z,12.45
2017-03-30T00:46:29.679Z,12.46
2017-03-30T00:47:10.350Z,12.37
2017-03-30T00:47:51.006Z,12.36
2017-03-30T00:48:31.654Z,12.35
2017-03-30T00:49:12.307Z,12.37
2017-03-30T00:49:52.949Z,12.35
2017-03-30T00:50:33.615Z,12.31
2017-03-30T00:51:14.273Z,12.27
2017-03-30T00:51:54.909Z,12.21
2017-03-30T00:52:35.550Z,12.22
2017-03-30T00:53:16.195Z,12.25
2017-03-30T00:53:56.784Z,12.22
2017-03-30T00:54:37.429Z,12.18
2017-03-30T00:55:18.045Z,12.17
2017-03-30T00:55:58.640Z,12.22
2017-03-30T00:56:39.287Z,12.31
2017-03-30T00:57:19.910Z,12.25
2017-03-30T00:58:00.554Z,12.28
2017-03-30T00:58:41.214Z,12.31
2017-03-30T00:59:21.860Z,12.32
2017-03-30T01:00:02.515Z,12.35
2017-03-30T01:00:43.173Z,12.32
2017-03-30T01:01:23.821Z,12.35
2017-03-30T01:02:04.470Z,12.37
2017-03-30T01:02:45.122Z,12.37
2017-03-30T01:03:25.776Z,12.36
2017-03-30T01:04:06.433Z,12.36
2017-03-30T01:04:47.082Z,12.32
2017-03-30T01:05:27.747Z,12.46
2017-03-30T01:06:08.395Z,12.43
2017-03-30T01:06:50.987Z,12.45
2017-03-30T01:07:31.643Z,12.45
2017-03-30T01:08:12.199Z,12.37
2017-03-30T01:08:53.890Z,12.42
2017-03-30T01:09:34.579Z,12.42
2017-03-30T01:10:16.210Z,12.42
2017-03-30T01:10:56.808Z,12.42
2017-03-30T01:11:37.454Z,12.42
2017-03-30T01:12:18.110Z,12.43
2017-03-30T01:12:58.709Z,12.46
2017-03-30T01:13:39.279Z,12.43
2017-03-30T01:14:19.944Z,12.47
2017-03-30T01:15:00.627Z,12.42
2017-03-30T01:15:41.220Z,12.46
2017-03-30T01:16:21.814Z,12.36
2017-03-30T01:17:04.501Z,12.42
2017-03-30T01:17:45.206Z,12.42
2017-03-30T01:18:26.242Z,12.5
2017-03-30T01:19:06.899Z,12.47
2017-03-30T01:19:47.549Z,12.47
2017-03-30T01:20:28.216Z,12.42
2017-03-30T01:21:08.854Z,12.53
2017-03-30T01:21:49.526Z,12.45
2017-03-30T01:22:30.164Z,12.54
2017-03-30T01:23:11.738Z,12.37
2017-03-30T01:23:52.386Z,12.42
2017-03-30T01:24:33.041Z,12.47
2017-03-30T01:25:13.709Z,12.45
2017-03-30T01:25:54.344Z,12.53
2017-03-30T01:26:34.998Z,12.53
2017-03-30T01:27:15.651Z,12.36
2017-03-30T01:27:56.211Z,12.55
2017-03-30T01:28:36.831Z,12.42
2017-03-30T01:29:17.460Z,12.43
2017-03-30T01:29:58.039Z,12.45
2017-03-30T01:30:38.671Z,12.4
2017-03-30T01:31:19.309Z,12.47
2017-03-30T01:31:59.895Z,12.49
2017-03-30T01:32:40.543Z,12.42
2017-03-30T01:33:21.168Z,12.42
2017-03-30T01:34:01.751Z,12.43
2017-03-30T01:34:42.398Z,12.46
2017-03-30T01:35:22.987Z,12.42
2017-03-30T01:36:03.577Z,12.31
2017-03-30T01:36:44.156Z,12.31
2017-03-30T01:37:24.819Z,12.49
2017-03-30T01:38:05.397Z,12.39
2017-03-30T01:38:46.085Z,12.55
2017-03-30T01:39:26.662Z,12.46
2017-03-30T01:40:07.314Z,12.39
2017-03-30T01:40:47.901Z,12.39
2017-03-30T01:41:28.495Z,12.4
2017-03-30T01:42:09.072Z,12.37
2017-03-30T01:42:49.723Z,12.39
2017-03-30T01:43:30.379Z,12.49
2017-03-30T01:44:11.025Z,12.43
2017-03-30T01:44:51.659Z,12.35
2017-03-30T01:45:32.336Z,12.47
2017-03-30T01:46:12.985Z,12.47
2017-03-30T01:46:53.653Z,12.37
2017-03-30T01:47:34.293Z,12.32
2017-03-30T01:48:14.892Z,12.39
2017-03-30T01:48:55.577Z,12.36
2017-03-30T01:49:36.221Z,12.42
2017-03-30T01:50:16.812Z,12.46
2017-03-30T01:50:58.424Z,12.45
2017-03-30T01:51:39.002Z,12.42
2017-03-30T01:52:19.587Z,12.43
2017-03-30T01:53:00.232Z,12.55
2017-03-30T01:53:40.860Z,12.39
2017-03-30T01:54:21.449Z,12.42
2017-03-30T01:55:02.125Z,12.43
2017-03-30T01:55:42.719Z,12.42
2017-03-30T01:56:23.302Z,12.45
2017-03-30T01:57:03.958Z,12.4
2017-03-30T01:57:44.574Z,12.35
2017-03-30T01:58:25.229Z,12.42
2017-03-30T01:59:05.885Z,12.45
2017-03-30T01:59:46.535Z,12.47
2017-03-30T02:00:27.186Z,12.43
2017-03-30T02:01:07.844Z,12.39
2017-03-30T02:01:48.509Z,12.47
2017-03-30T02:02:29.152Z,12.42
2017-03-30T02:03:09.723Z,12.45
2017-03-30T02:03:50.379Z,12.46
2017-03-30T02:04:31.033Z,12.36
2017-03-30T02:05:11.685Z,12.49
2017-03-30T02:05:52.343Z,12.42
2017-03-30T02:06:33.020Z,12.4
2017-03-30T02:07:13.644Z,12.39
2017-03-30T02:07:54.281Z,12.45
2017-03-30T02:08:35.903Z,12.37
2017-03-30T02:09:16.495Z,12.46
2017-03-30T02:09:57.073Z,12.45
2017-03-30T02:10:37.727Z,12.42
2017-03-30T02:11:18.413Z,12.43
2017-03-30T02:11:59.016Z,12.45
2017-03-30T02:12:39.590Z,12.36
2017-03-30T02:13:20.241Z,12.5
2017-03-30T02:14:03.218Z,12.45
2017-03-30T02:14:43.789Z,12.5
2017-03-30T02:15:24.438Z,12.45
2017-03-30T02:16:05.089Z,12.5
2017-03-30T02:16:45.643Z,12.42
2017-03-30T02:17:26.297Z,12.36
2017-03-30T02:18:06.931Z,12.47
2017-03-30T02:18:47.498Z,12.45
2017-03-30T02:19:28.211Z,12.47
2017-03-30T02:20:08.884Z,12.53
2017-03-30T02:20:49.475Z,12.43
2017-03-30T02:21:30.112Z,12.39
2017-03-30T02:22:11.770Z,12.42
2017-03-30T02:22:52.372Z,12.43
2017-03-30T02:23:32.994Z,12.45
2017-03-30T02:24:13.643Z,12.4
2017-03-30T02:24:54.299Z,12.55
2017-03-30T02:25:34.949Z,12.49
2017-03-30T02:26:15.608Z,12.36
2017-03-30T02:26:56.267Z,12.35
2017-03-30T02:27:36.915Z,12.49
2017-03-30T02:28:17.566Z,12.39
2017-03-30T02:28:58.225Z,12.42
2017-03-30T02:29:38.882Z,12.47
2017-03-30T02:30:19.529Z,12.47
2017-03-30T02:31:00.174Z,12.43
2017-03-30T02:31:40.841Z,12.39
2017-03-30T02:32:21.489Z,12.4
2017-03-30T02:33:02.129Z,12.43
2017-03-30T02:33:42.777Z,12.35
2017-03-30T02:34:23.351Z,12.5
2017-03-30T02:35:03.995Z,12.39
2017-03-30T02:35:44.621Z,12.4
2017-03-30T02:36:25.197Z,12.4
2017-03-30T02:37:05.839Z,12.49
2017-03-30T02:37:46.481Z,12.43
2017-03-30T02:38:27.043Z,12.42
2017-03-30T02:39:07.692Z,12.37
2017-03-30T02:39:48.354Z,12.42
2017-03-30T02:40:29.003Z,12.42
2017-03-30T02:41:09.660Z,12.37
2017-03-30T02:41:50.310Z,12.49
2017-03-30T02:42:30.957Z,12.42
2017-03-30T02:43:11.551Z,12.37
2017-03-30T02:43:52.155Z,12.4
2017-03-30T02:44:32.725Z,12.42
2017-03-30T02:45:13.375Z,12.43
2017-03-30T02:45:54.095Z,12.5
2017-03-30T02:46:34.758Z,12.39
2017-03-30T02:47:15.328Z,12.37
2017-03-30T02:47:55.982Z,12.39
2017-03-30T02:48:36.625Z,12.42
2017-03-30T02:49:17.288Z,12.39
2017-03-30T02:49:57.949Z,12.45
2017-03-30T02:50:38.607Z,12.43
2017-03-30T02:51:19.257Z,12.46
2017-03-30T02:51:59.901Z,12.49
2017-03-30T02:52:40.576Z,12.42
2017-03-30T02:53:21.219Z,12.37
2017-03-30T02:54:01.772Z,12.54
2017-03-30T02:54:42.409Z,12.42
2017-03-30T02:55:23.048Z,12.35
2017-03-30T02:56:03.625Z,12.43
2017-03-30T02:56:44.266Z,12.42
2017-03-30T02:57:24.904Z,12.39
2017-03-30T02:58:05.466Z,12.49
2017-03-30T02:58:46.136Z,12.35
2017-03-30T02:59:26.786Z,12.42
2017-03-30T03:00:07.425Z,12.58
2017-03-30T03:00:48.103Z,12.39
2017-03-30T03:01:28.735Z,12.37
2017-03-30T03:02:09.375Z,12.43
2017-03-30T03:02:50.043Z,12.39
2017-03-30T03:03:30.707Z,12.35
2017-03-30T03:04:11.353Z,12.43
2017-03-30T03:04:52.019Z,12.39
2017-03-30T03:05:32.658Z,12.4
2017-03-30T03:06:13.314Z,12.39
2017-03-30T03:06:53.962Z,12.37
2017-03-30T03:07:34.620Z,12.49
2017-03-30T03:08:15.198Z,12.46
2017-03-30T03:08:55.799Z,12.4
2017-03-30T03:09:36.374Z,12.42
2017-03-30T03:10:17.025Z,12.49
2017-03-30T03:10:57.704Z,12.47
2017-03-30T03:11:38.308Z,12.4
2017-03-30T03:12:18.875Z,12.5
2017-03-30T03:12:59.525Z,12.42
2017-03-30T03:13:40.190Z,12.5
2017-03-30T03:14:20.830Z,12.39
2017-03-30T03:15:01.484Z,12.49
2017-03-30T03:15:42.164Z,12.5
2017-03-30T03:16:22.789Z,12.39
2017-03-30T03:17:03.451Z,12.49
2017-03-30T03:17:44.096Z,12.49
2017-03-30T03:18:24.691Z,12.43
2017-03-30T03:19:05.285Z,12.37
2017-03-30T03:19:45.860Z,12.39
2017-03-30T03:20:26.515Z,12.42
2017-03-30T03:21:07.094Z,12.4
2017-03-30T03:21:47.696Z,12.46
2017-03-30T03:22:28.249Z,12.43
2017-03-30T03:23:08.909Z,12.4
2017-03-30T03:23:49.561Z,12.42
2017-03-30T03:24:30.222Z,12.4
2017-03-30T03:25:10.880Z,12.42
2017-03-30T03:25:51.523Z,12.4
2017-03-30T03:26:32.187Z,12.4
2017-03-30T03:27:12.830Z,12.46
2017-03-30T03:27:53.487Z,12.43
2017-03-30T03:28:34.067Z,12.45
2017-03-30T03:29:14.677Z,12.46
2017-03-30T03:29:55.255Z,12.4
2017-03-30T03:30:35.886Z,12.45
2017-03-30T03:31:16.493Z,12.45
2017-03-30T03:31:57.076Z,12.4
2017-03-30T03:32:37.642Z,12.43
2017-03-30T03:33:18.279Z,12.45
2017-03-30T03:33:59.831Z,12.45
2017-03-30T03:34:40.442Z,12.43
2017-03-30T03:35:22.107Z,12.42
2017-03-30T03:36:02.760Z,12.42
2017-03-30T03:36:43.422Z,12.32
2017-03-30T03:37:24.056Z,12.31
2017-03-30T03:38:04.711Z,12.42
2017-03-30T03:38:45.374Z,12.29
2017-03-30T03:39:26.008Z,12.32
2017-03-30T03:40:06.703Z,12.35
2017-03-30T03:40:47.592Z,12.28
2017-03-30T03:41:28.193Z,12.32
2017-03-30T03:42:08.861Z,12.39
2017-03-30T03:42:49.491Z,12.36
2017-03-30T03:43:30.147Z,12.37
2017-03-30T03:44:10.798Z,12.39
2017-03-30T03:44:51.504Z,12.39
2017-03-30T03:45:32.103Z,12.36
2017-03-30T03:46:12.765Z,12.36
2017-03-30T03:46:53.409Z,12.37
2017-03-30T03:47:34.057Z,12.32
2017-03-30T03:48:14.646Z,12.37
2017-03-30T03:48:55.240Z,12.36
2017-03-30T03:49:35.835Z,12.31
2017-03-30T03:50:17.496Z,12.36
2017-03-30T03:50:58.187Z,12.36
2017-03-30T03:51:38.876Z,12.36
2017-03-30T03:52:19.453Z,12.42
2017-03-30T03:53:00.099Z,12.36
2017-03-30T03:53:40.793Z,12.29
2017-03-30T03:54:21.446Z,12.29
2017-03-30T03:55:02.105Z,12.32
2017-03-30T03:55:42.772Z,12.29
2017-03-30T03:56:23.415Z,12.35
2017-03-30T03:57:04.156Z,12.35
2017-03-30T03:57:44.913Z,12.37
2017-03-30T03:58:25.610Z,12.39
2017-03-30T03:59:06.205Z,12.39
2017-03-30T03:59:46.989Z,12.31
2017-03-30T04:00:27.738Z,12.36
2017-03-30T04:01:08.444Z,12.37
2017-03-30T04:01:49.007Z,12.31
2017-03-30T04:02:29.670Z,12.36
2017-03-30T04:03:10.350Z,12.37
2017-03-30T04:03:51.002Z,12.35
2017-03-30T04:04:31.659Z,12.39
2017-03-30T04:05:12.418Z,12.37
2017-03-30T04:05:53.169Z,12.35
2017-03-30T04:06:33.825Z,12.35
2017-03-30T04:07:14.575Z,12.37
2017-03-30T04:07:55.233Z,12.35
2017-03-30T04:08:35.939Z,12.32
2017-03-30T04:09:16.597Z,12.35
2017-03-30T04:09:57.266Z,12.37
2017-03-30T04:10:38.016Z,12.32
2017-03-30T04:11:18.760Z,12.35
2017-03-30T04:11:59.516Z,12.31
2017-03-30T04:12:40.271Z,12.36
2017-03-30T04:13:20.927Z,12.27
2017-03-30T04:14:01.681Z,12.32
2017-03-30T04:14:42.332Z,12.31
2017-03-30T04:15:22.992Z,12.32
2017-03-30T04:16:03.634Z,12.31
2017-03-30T04:16:44.305Z,12.28
2017-03-30T04:17:25.060Z,12.32
2017-03-30T04:18:05.698Z,12.29
2017-03-30T04:18:46.438Z,12.39
2017-03-30T04:19:27.020Z,12.31
2017-03-30T04:20:07.658Z,12.28
2017-03-30T04:20:48.398Z,12.36
2017-03-30T04:21:28.977Z,12.32
2017-03-30T04:22:09.614Z,12.27
2017-03-30T04:22:50.354Z,12.32
2017-03-30T04:23:31.939Z,12.39
2017-03-30T04:24:12.591Z,12.35
2017-03-30T04:24:53.191Z,12.35
2017-03-30T04:25:33.889Z,12.32
2017-03-30T04:26:14.448Z,12.37
2017-03-30T04:26:55.107Z,12.32
2017-03-30T04:27:35.698Z,12.35
2017-03-30T04:28:16.262Z,12.36
2017-03-30T04:28:56.863Z,12.29
2017-03-30T04:29:37.493Z,12.37
2017-03-30T04:30:18.044Z,12.36
2017-03-30T04:30:58.744Z,12.36
2017-03-30T04:31:39.351Z,12.39
2017-03-30T04:32:19.939Z,12.39
2017-03-30T04:33:00.581Z,12.39
2017-03-30T04:33:41.214Z,12.36
2017-03-30T04:34:21.861Z,12.35
2017-03-30T04:35:02.515Z,12.35
2017-03-30T04:35:43.081Z,12.36
2017-03-30T04:36:23.716Z,12.32
2017-03-30T04:37:04.369Z,12.31
2017-03-30T04:37:45.021Z,12.36
2017-03-30T04:38:25.590Z,12.39
2017-03-30T04:39:06.328Z,12.37
2017-03-30T04:39:46.932Z,12.32
2017-03-30T04:40:27.533Z,12.32
2017-03-30T04:41:08.098Z,12.36
2017-03-30T04:41:48.768Z,12.45
2017-03-30T04:42:30.363Z,12.42
2017-03-30T04:43:12.675Z,12.43
2017-03-30T04:43:53.517Z,12.43
2017-03-30T04:44:34.144Z,12.46
2017-03-30T04:45:14.837Z,12.42
2017-03-30T04:45:55.553Z,12.28
2017-03-30T04:46:36.189Z,12.43
2017-03-30T04:47:16.842Z,12.45
2017-03-30T04:47:57.488Z,12.4
2017-03-30T04:48:38.188Z,12.45
2017-03-30T04:49:18.886Z,12.4
2017-03-30T04:49:59.491Z,12.37
2017-03-30T04:50:40.105Z,12.4
2017-03-30T04:51:23.399Z,12.45
2017-03-30T04:52:04.980Z,12.43
2017-03-30T04:52:45.565Z,12.43
2017-03-30T04:53:27.082Z,12.43
2017-03-30T04:54:07.817Z,12.43
2017-03-30T04:54:48.391Z,12.46
2017-03-30T04:55:29.098Z,12.43
2017-03-30T04:56:09.717Z,12.43
2017-03-30T04:56:50.275Z,12.45
2017-03-30T04:57:30.929Z,12.42
2017-03-30T04:58:11.678Z,12.39
2017-03-30T04:58:52.241Z,12.42
2017-03-30T04:59:32.914Z,12.45
2017-03-30T05:00:13.539Z,12.43
2017-03-30T05:00:54.116Z,12.4
2017-03-30T05:01:34.752Z,12.42
2017-03-30T05:02:15.389Z,12.43
2017-03-30T05:02:55.942Z,12.43
2017-03-30T05:03:36.631Z,12.47
2017-03-30T05:04:17.302Z,12.43
2017-03-30T05:04:57.912Z,12.45
2017-03-30T05:05:38.465Z,12.36
2017-03-30T05:06:19.129Z,12.31
2017-03-30T05:06:59.816Z,12.36
2017-03-30T05:07:40.410Z,12.39
2017-03-30T05:08:20.990Z,12.4
2017-03-30T05:09:01.643Z,12.37
2017-03-30T05:09:42.289Z,12.37
2017-03-30T05:10:22.946Z,12.36
2017-03-30T05:11:03.600Z,12.35
2017-03-30T05:11:44.225Z,12.35
2017-03-30T05:12:24.891Z,12.32
2017-03-30T05:13:05.546Z,12.37
2017-03-30T05:13:46.186Z,12.36
2017-03-30T05:14:26.855Z,12.35
2017-03-30T05:15:07.502Z,12.36
2017-03-30T05:15:48.157Z,12.28
2017-03-30T05:16:28.810Z,12.29
2017-03-30T05:17:09.464Z,12.32
2017-03-30T05:17:50.123Z,12.35
2017-03-30T05:18:30.787Z,12.36
2017-03-30T05:19:11.423Z,12.31
2017-03-30T05:19:52.086Z,12.35
2017-03-30T05:20:33.762Z,12.29
2017-03-30T05:21:14.418Z,12.27
2017-03-30T05:21:55.065Z,12.29
2017-03-30T05:22:35.769Z,12.32
2017-03-30T05:23:16.383Z,12.32
2017-03-30T05:23:56.999Z,12.31
2017-03-30T05:24:37.551Z,12.29
2017-03-30T05:25:18.221Z,12.35
2017-03-30T05:25:58.856Z,12.27
2017-03-30T05:26:39.425Z,12.29
2017-03-30T05:27:20.081Z,12.28
2017-03-30T05:28:00.709Z,12.28
2017-03-30T05:28:41.369Z,12.28
2017-03-30T05:29:22.018Z,12.27
2017-03-30T05:30:02.669Z,12.27
2017-03-30T05:30:43.323Z,12.28
2017-03-30T05:31:24.087Z,12.28
2017-03-30T05:32:05.981Z,12.27
2017-03-30T05:32:47.239Z,12.28
2017-03-30T05:33:28.312Z,12.32
2017-03-30T05:34:09.798Z,12.27
2017-03-30T05:34:50.559Z,12.2
2017-03-30T05:35:31.488Z,12.22
2017-03-30T05:36:12.227Z,12.27
2017-03-30T05:36:53.005Z,12.22
2017-03-30T05:37:33.614Z,12.22
2017-03-30T05:38:14.224Z,12.21
2017-03-30T05:38:54.885Z,12.24
2017-03-30T05:39:35.526Z,12.25
2017-03-30T05:40:16.173Z,12.25
2017-03-30T05:40:56.824Z,12.18
2017-03-30T05:41:37.487Z,12.24
2017-03-30T05:42:18.138Z,12.25
2017-03-30T05:42:58.785Z,12.25
2017-03-30T05:43:39.630Z,12.2
2017-03-30T05:44:20.410Z,12.21
2017-03-30T05:45:01.036Z,12.18
2017-03-30T05:45:42.372Z,12.24
2017-03-30T05:46:23.224Z,12.25
2017-03-30T05:47:03.793Z,12.31
2017-03-30T05:47:44.410Z,12.35
2017-03-30T05:48:24.983Z,12.27
2017-03-30T05:49:05.578Z,12.28
2017-03-30T05:49:46.187Z,12.29
2017-03-30T05:50:26.783Z,12.25
2017-03-30T05:51:07.392Z,12.32
2017-03-30T05:51:48.004Z,12.29
2017-03-30T05:52:28.606Z,12.31
2017-03-30T05:53:09.291Z,12.32
2017-03-30T05:53:49.945Z,12.36
2017-03-30T05:54:30.590Z,12.27
2017-03-30T05:55:11.252Z,12.32
2017-03-30T05:55:51.902Z,12.31
2017-03-30T05:56:32.559Z,12.31
2017-03-30T05:57:13.211Z,12.31
2017-03-30T05:57:53.863Z,12.31
2017-03-30T05:58:34.412Z,12.31
2017-03-30T05:59:15.094Z,12.37
2017-03-30T05:59:55.776Z,12.42
2017-03-30T06:00:36.372Z,12.45
2017-03-30T06:01:16.922Z,12.35
2017-03-30T06:01:57.633Z,12.32
2017-03-30T06:02:38.298Z,12.43
2017-03-30T06:03:18.882Z,12.46
2017-03-30T06:03:59.427Z,12.43
2017-03-30T06:04:40.150Z,12.43
2017-03-30T06:05:20.767Z,12.43
2017-03-30T06:06:01.427Z,12.45
2017-03-30T06:06:42.074Z,12.47
2017-03-30T06:07:23.751Z,12.45
2017-03-30T06:08:04.398Z,12.53
2017-03-30T06:08:45.060Z,12.47
2017-03-30T06:09:31.258Z,12.49
2017-03-30T06:10:11.927Z,12.4
2017-03-30T06:10:52.570Z,12.46
2017-03-30T06:11:33.201Z,12.49
2017-03-30T06:12:13.888Z,12.47
2017-03-30T06:12:55.537Z,12.6
2017-03-30T06:13:36.347Z,12.6
2017-03-30T06:14:17.091Z,12.5
2017-03-30T06:14:57.667Z,12.53
2017-03-30T06:15:38.339Z,12.54
2017-03-30T06:16:19.031Z,12.6
2017-03-30T06:16:59.639Z,12.6
2017-03-30T06:17:40.320Z,12.58
2017-03-30T06:18:20.959Z,12.67
2017-03-30T06:19:01.690Z,12.57
2017-03-30T06:19:42.291Z,12.6
2017-03-30T06:20:24.039Z,12.6
2017-03-30T06:21:04.660Z,12.65
2017-03-30T06:21:45.260Z,12.64
2017-03-30T06:22:25.887Z,12.67
2017-03-30T06:23:06.517Z,12.67
2017-03-30T06:23:47.098Z,12.64
2017-03-30T06:24:27.778Z,12.7
2017-03-30T06:25:08.477Z,12.72
2017-03-30T06:25:49.136Z,12.7
2017-03-30T06:26:29.821Z,12.78
2017-03-30T06:27:10.436Z,12.73
2017-03-30T06:27:51.044Z,12.75
2017-03-30T06:28:31.736Z,12.72
2017-03-30T06:29:12.348Z,12.76
2017-03-30T06:29:53.044Z,12.76
2017-03-30T06:30:33.664Z,12.86
2017-03-30T06:31:14.325Z,12.8
2017-03-30T06:31:54.977Z,12.87
2017-03-30T06:32:35.662Z,12.86
2017-03-30T06:33:16.263Z,12.82
2017-03-30T06:33:56.917Z,12.91
2017-03-30T06:34:37.542Z,12.9
2017-03-30T06:35:18.326Z,12.91
2017-03-30T06:35:59.026Z,12.97
2017-03-30T06:36:39.651Z,12.98
2017-03-30T06:37:20.361Z,12.94
2017-03-30T06:38:01.320Z,13.05
2017-03-30T06:38:42.620Z,13.04
2017-03-30T06:39:23.276Z,13.09
2017-03-30T06:40:03.921Z,13.16
2017-03-30T06:40:44.573Z,13.12
2017-03-30T06:41:25.241Z,13.09
2017-03-30T06:42:06.913Z,13.18
2017-03-30T06:42:47.569Z,13.2
2017-03-30T06:43:28.211Z,13.28
2017-03-30T06:44:08.897Z,13.27
2017-03-30T06:44:49.642Z,13.31
2017-03-30T06:45:30.294Z,13.38
2017-03-30T06:46:10.938Z,13.46
2017-03-30T06:46:51.575Z,13.47
2017-03-30T06:47:32.231Z,13.41
2017-03-30T06:48:12.881Z,13.49
2017-03-30T06:48:53.524Z,13.56
2017-03-30T06:49:34.149Z,13.54
2017-03-30T06:50:14.784Z,13.6
2017-03-30T06:50:55.388Z,13.63
2017-03-30T06:51:36.039Z,13.62
2017-03-30T06:52:16.949Z,13.74
2017-03-30T06:52:57.569Z,13.7
2017-03-30T06:53:38.263Z,13.68
2017-03-30T06:54:18.913Z,13.74
2017-03-30T06:54:59.539Z,13.77
2017-03-30T06:55:40.231Z,13.77
2017-03-30T06:56:20.861Z,13.77
2017-03-30T06:57:01.425Z,13.85
2017-03-30T06:57:44.082Z,13.9
2017-03-30T06:58:24.669Z,13.78
2017-03-30T06:59:05.240Z,13.87
2017-03-30T06:59:45.857Z,13.81
2017-03-30T07:00:27.760Z,13.9
2017-03-30T07:01:08.424Z,13.9
2017-03-30T07:01:49.121Z,13.9
2017-03-30T07:02:29.741Z,13.89
2017-03-30T07:03:10.382Z,13.9
2017-03-30T07:03:51.088Z,13.79
2017-03-30T07:04:31.784Z,13.87
2017-03-30T07:05:12.370Z,13.9
2017-03-30T07:05:53.010Z,13.92
2017-03-30T07:06:33.687Z,13.89
2017-03-30T07:07:14.404Z,13.9
2017-03-30T07:07:54.958Z,13.87
2017-03-30T07:08:36.671Z,13.89
2017-03-30T07:09:17.277Z,13.96
2017-03-30T07:09:57.990Z,14
2017-03-30T07:10:38.593Z,13.96
2017-03-30T07:11:19.267Z,13.96
2017-03-30T07:11:59.901Z,13.99
2017-03-30T07:12:40.551Z,14.07
2017-03-30T07:13:21.240Z,14.11
2017-03-30T07:14:01.925Z,14.14
2017-03-30T07:14:43.621Z,14.14
2017-03-30T07:15:24.197Z,14.14
2017-03-30T07:16:04.868Z,14.28
2017-03-30T07:16:45.536Z,14.22
2017-03-30T07:17:26.225Z,14.32
2017-03-30T07:18:06.843Z,14.35
2017-03-30T07:18:47.520Z,14.45
2017-03-30T07:19:28.143Z,14.43
2017-03-30T07:20:08.745Z,14.6
2017-03-30T07:20:49.369Z,14.55
2017-03-30T07:21:30.010Z,14.68
2017-03-30T07:22:10.683Z,14.69
2017-03-30T07:22:51.365Z,14.72
2017-03-30T07:23:31.983Z,14.86
2017-03-30T07:24:12.591Z,14.78
2017-03-30T07:24:53.209Z,14.84
2017-03-30T07:25:33.781Z,14.73
2017-03-30T07:26:14.453Z,14.79
2017-03-30T07:26:55.165Z,14.86
2017-03-30T07:27:35.736Z,14.92
2017-03-30T07:28:16.430Z,14.91
2017-03-30T07:28:57.241Z,14.96
2017-03-30T07:29:37.873Z,14.99
2017-03-30T07:30:18.490Z,14.99
2017-03-30T07:30:59.048Z,14.97
2017-03-30T07:31:39.612Z,14.99
2017-03-30T07:32:20.238Z,14.94
2017-03-30T07:33:02.873Z,14.97
2017-03-30T07:33:43.441Z,14.96
2017-03-30T07:34:24.032Z,14.89
2017-03-30T07:35:04.597Z,14.85
2017-03-30T07:35:46.214Z,14.81
2017-03-30T07:36:26.790Z,14.79
2017-03-30T07:37:07.373Z,14.72
2017-03-30T07:37:47.964Z,14.81
2017-03-30T07:38:28.520Z,14.77
2017-03-30T07:39:09.076Z,14.69
2017-03-30T07:39:49.639Z,14.66
2017-03-30T07:40:30.231Z,14.68
2017-03-30T07:41:11.797Z,14.68
2017-03-30T07:41:52.377Z,14.66
2017-03-30T07:42:32.954Z,14.65
2017-03-30T07:43:13.517Z,14.66
2017-03-30T07:43:54.153Z,14.69
2017-03-30T07:44:34.722Z,14.68
2017-03-30T07:45:15.332Z,14.65
2017-03-30T07:45:55.919Z,14.77
2017-03-30T07:46:36.571Z,14.77
2017-03-30T07:47:17.085Z,14.73
2017-03-30T07:47:57.690Z,14.88
2017-03-30T07:48:38.291Z,14.85
2017-03-30T07:49:19.017Z,15
2017-03-30T07:50:02.051Z,15.02
2017-03-30T07:50:42.637Z,15.06
2017-03-30T07:51:23.229Z,15.1
2017-03-30T07:52:03.805Z,15.24
2017-03-30T07:52:44.385Z,15.25
2017-03-30T07:53:24.994Z,15.33
2017-03-30T07:54:05.584Z,15.36
2017-03-30T07:54:46.164Z,15.42
2017-03-30T07:55:26.740Z,15.39
2017-03-30T07:56:07.674Z,15.46
2017-03-30T07:56:48.252Z,15.43
2017-03-30T07:57:28.917Z,15.52
2017-03-30T07:58:09.540Z,15.51
2017-03-30T07:58:50.114Z,15.55
2017-03-30T07:59:30.671Z,15.57
2017-03-30T08:00:11.265Z,15.54
2017-03-30T08:00:51.865Z,15.58
2017-03-30T08:01:32.537Z,15.62
2017-03-30T08:02:13.119Z,15.64
2017-03-30T08:02:53.695Z,15.65
2017-03-30T08:03:34.267Z,15.65
2017-03-30T08:04:14.876Z,15.83
2017-03-30T08:04:55.506Z,15.73
2017-03-30T08:05:36.203Z,15.8
2017-03-30T08:06:16.789Z,15.82
2017-03-30T08:06:57.361Z,15.91
2017-03-30T08:07:37.959Z,15.84
2017-03-30T08:08:18.552Z,15.83
2017-03-30T08:08:59.139Z,15.91
2017-03-30T08:09:39.711Z,15.9
2017-03-30T08:10:20.334Z,15.83
2017-03-30T08:11:00.941Z,15.92
2017-03-30T08:11:41.508Z,15.82
2017-03-30T08:12:22.089Z,15.8
2017-03-30T08:13:02.652Z,15.91
2017-03-30T08:13:43.239Z,15.84
2017-03-30T08:14:23.831Z,15.83
2017-03-30T08:15:04.401Z,15.83
2017-03-30T08:15:44.977Z,15.77
2017-03-30T08:16:25.609Z,15.77
2017-03-30T08:17:06.197Z,15.72
2017-03-30T08:17:46.777Z,15.68
2017-03-30T08:18:27.350Z,15.68
2017-03-30T08:19:07.926Z,15.64
2017-03-30T08:19:48.526Z,15.67
2017-03-30T08:20:29.110Z,15.65
2017-03-30T08:21:09.700Z,15.65
2017-03-30T08:21:50.310Z,15.65
2017-03-30T08:22:30.886Z,15.62
2017-03-30T08:23:11.552Z,15.68
2017-03-30T08:23:52.099Z,15.75
2017-03-30T08:24:32.707Z,15.73
2017-03-30T08:25:13.235Z,15.76
2017-03-30T08:25:53.816Z,15.76
2017-03-30T08:26:35.390Z,15.76
2017-03-30T08:27:16.118Z,15.83
2017-03-30T08:27:56.692Z,15.84
2017-03-30T08:28:37.342Z,15.67
2017-03-30T08:29:17.914Z,15.73
2017-03-30T08:29:58.501Z,15.84
2017-03-30T08:30:39.079Z,15.8
2017-03-30T08:31:19.680Z,15.76
2017-03-30T08:32:00.363Z,15.84
2017-03-30T08:32:42.949Z,15.82
2017-03-30T08:33:23.528Z,15.84
2017-03-30T08:34:04.137Z,15.88
2017-03-30T08:34:45.733Z,15.83
2017-03-30T08:35:27.299Z,15.83
2017-03-30T08:36:07.879Z,15.97
2017-03-30T08:36:48.476Z,15.83
2017-03-30T08:37:29.053Z,15.9
2017-03-30T08:38:09.644Z,15.94
2017-03-30T08:38:50.262Z,15.92
2017-03-30T08:39:30.821Z,15.97
2017-03-30T08:40:13.429Z,16.05
2017-03-30T08:40:54.024Z,16.1
2017-03-30T08:41:34.615Z,16.15
2017-03-30T08:42:15.228Z,16.16
2017-03-30T08:42:55.807Z,16.29
2017-03-30T08:43:36.402Z,16.24
2017-03-30T08:44:17.021Z,16.39
2017-03-30T08:44:57.601Z,16.38
2017-03-30T08:45:38.156Z,16.54
2017-03-30T08:46:18.765Z,16.71